Promise, South Dakota
Current Conditions -  °F | °C
As of 2:52 AM on Sunday 26 Oct 2014 (Local Time) from KMBG Reporting Station
Clear Clear  
Wind Chill: 52°   Ceiling: Unl
Heat Index: 52°   Visibility: 10mi
Dew Point: 33°   Wind: 17mph
Humidity: 49%   Direction: 130°SE
Pressure: 29.81"   Gusts: NA
Location:  45.5528°N, 100.336°W
Report Text: KMBG 260752Z AUTO 13015KT 10SM CLR 11/01 A2981 RMK AO2 SLP092 T01110006
Loading
Personal Weather Stations






























Interactive Weather Map
Tropical Storm Tracking
New forecast layout! Learn more

10-Day Weather Forecast

Advertisements
Track Severe Weather on mobile